Time,TemperatureF,DewpointF,PressureIn,WindDirection,WindDirectionDegrees,WindSpeedMPH,WindSpeedGustMPH,Humidity,HourlyPrecipIn,Conditions,Clouds,dailyrainin,SoftwareType,DateUTC
2013-07-14 00:08:00,67.8,63.1,29.95,NE,45,3.1,5.4,85,0.01,,,0.00,pywws,2013-07-13 14:08:00,
2013-07-14 00:19:00,68.4,63.0,29.95,NE,45,3.8,5.4,83,0.01,,,0.00,pywws,2013-07-13 14:19:00,
2013-07-14 00:29:00,69.3,63.2,29.94,North,0,2.2,3.1,81,0.00,,,0.00,pywws,2013-07-13 14:29:00,
2013-07-14 00:39:00,69.3,62.8,29.94,NE,45,1.6,3.1,80,0.00,,,0.00,pywws,2013-07-13 14:39:00,
2013-07-14 00:49:00,69.4,63.0,29.94,NE,45,1.6,3.8,80,0.00,,,0.00,pywws,2013-07-13 14:49:00,
2013-07-14 00:59:00,69.8,62.6,29.94,NE,45,3.1,6.0,78,0.00,,,0.00,pywws,2013-07-13 14:59:00,
2013-07-14 01:08:00,70.0,62.8,29.93,NE,45,4.5,6.0,78,0.00,,,0.00,pywws,2013-07-13 15:08:00,
2013-07-14 01:19:00,70.2,62.6,29.93,NE,45,3.1,5.4,77,0.00,,,0.00,pywws,2013-07-13 15:19:00,
2013-07-14 01:29:00,70.2,62.6,29.93,NNE,22,3.8,5.4,77,0.00,,,0.00,pywws,2013-07-13 15:29:00,
2013-07-14 01:39:00,70.2,63.0,29.93,NE,45,1.6,3.1,78,0.00,,,0.00,pywws,2013-07-13 15:39:00,
2013-07-14 01:49:00,69.8,63.0,29.92,NE,45,3.8,5.4,79,0.00,,,0.00,pywws,2013-07-13 15:49:00,
2013-07-14 01:59:00,69.6,63.9,29.92,NE,45,2.2,3.8,82,0.00,,,0.00,pywws,2013-07-13 15:59:00,
2013-07-14 02:08:00,69.4,63.7,29.92,South,180,0.0,1.6,82,0.00,,,0.00,pywws,2013-07-13 16:08:00,
2013-07-14 02:19:00,69.4,64.0,29.92,SE,135,4.5,7.6,83,0.00,,,0.00,pywws,2013-07-13 16:19:00,
2013-07-14 02:29:00,69.6,63.9,29.92,North,0,2.2,3.8,82,0.00,,,0.00,pywws,2013-07-13 16:29:00,
2013-07-14 02:39:00,69.8,63.3,29.92,NE,45,4.5,7.6,80,0.00,,,0.00,pywws,2013-07-13 16:39:00,
2013-07-14 02:49:00,70.0,62.8,29.91,SE,135,2.2,4.5,78,0.00,,,0.00,pywws,2013-07-13 16:49:00,
2013-07-14 02:59:00,69.6,62.8,29.91,NE,45,5.4,9.8,79,0.00,,,0.00,pywws,2013-07-13 16:59:00,
2013-07-14 03:08:00,69.6,62.1,29.91,NE,45,3.8,8.3,77,0.00,,,0.00,pywws,2013-07-13 17:08:00,
2013-07-14 03:19:00,70.0,62.1,29.91,East,90,2.2,5.4,76,0.00,,,0.00,pywws,2013-07-13 17:19:00,
2013-07-14 03:29:00,69.3,62.5,29.91,East,90,3.1,4.5,79,0.00,,,0.00,pywws,2013-07-13 17:29:00,
2013-07-14 03:39:00,68.7,63.0,29.91,East,90,0.7,2.2,82,0.00,,,0.00,pywws,2013-07-13 17:39:00,
2013-07-14 03:49:00,68.7,63.3,29.91,SW,225,3.8,7.6,83,0.00,,,0.00,pywws,2013-07-13 17:49:00,
2013-07-14 03:59:00,68.5,63.5,29.91,North,0,3.8,8.3,84,0.00,,,0.00,pywws,2013-07-13 17:59:00,
2013-07-14 04:08:00,68.5,63.5,29.91,South,180,7.6,12.1,84,0.00,,,0.00,pywws,2013-07-13 18:08:00,
2013-07-14 04:19:00,68.0,64.0,29.91,North,0,4.5,7.6,87,0.00,,,0.00,pywws,2013-07-13 18:19:00,
2013-07-14 04:29:00,67.8,64.1,29.91,North,0,2.2,3.8,88,0.00,,,0.00,pywws,2013-07-13 18:29:00,
2013-07-14 04:39:00,68.2,63.5,29.91,NNE,22,3.1,4.5,85,0.00,,,0.00,pywws,2013-07-13 18:39:00,
2013-07-14 04:49:00,68.2,63.2,29.91,North,0,3.8,6.0,84,0.00,,,0.00,pywws,2013-07-13 18:49:00,
2013-07-14 04:59:00,68.4,63.3,29.91,West,270,2.2,3.8,84,0.00,,,0.00,pywws,2013-07-13 18:59:00,
2013-07-14 05:08:00,69.1,63.3,29.91,North,0,3.1,5.4,82,0.00,,,0.00,pywws,2013-07-13 19:08:00,
2013-07-14 05:19:00,69.1,63.0,29.91,SE,135,1.6,4.5,81,0.00,,,0.00,pywws,2013-07-13 19:19:00,
2013-07-14 05:29:00,68.7,63.0,29.91,NE,45,2.2,5.4,82,0.00,,,0.00,pywws,2013-07-13 19:29:00,
2013-07-14 05:39:00,69.3,62.8,29.91,East,90,3.1,5.4,80,0.00,,,0.00,pywws,2013-07-13 19:39:00,
2013-07-14 05:49:00,69.1,62.6,29.91,South,180,0.7,1.6,80,0.00,,,0.00,pywws,2013-07-13 19:49:00,
2013-07-14 05:59:00,69.3,62.8,29.92,NNE,22,3.8,6.0,80,0.00,,,0.00,pywws,2013-07-13 19:59:00,
2013-07-14 06:08:00,69.3,62.8,29.93,NE,45,3.8,6.0,80,0.00,,,0.00,pywws,2013-07-13 20:08:00,
2013-07-14 06:19:00,68.2,62.8,29.93,NE,45,6.0,8.3,83,0.00,,,0.00,pywws,2013-07-13 20:19:00,
2013-07-14 06:29:00,68.5,63.2,29.93,ENE,68,3.8,5.4,83,0.00,,,0.00,pywws,2013-07-13 20:29:00,
2013-07-14 06:39:00,68.5,62.8,29.93,East,90,2.2,3.1,82,0.00,,,0.00,pywws,2013-07-13 20:39:00,
2013-07-14 06:49:00,68.7,62.6,29.93,NNE,22,3.1,4.5,81,0.00,,,0.00,pywws,2013-07-13 20:49:00,
2013-07-14 06:59:00,68.9,62.8,29.93,NE,45,6.0,9.2,81,0.00,,,0.00,pywws,2013-07-13 20:59:00,
2013-07-14 07:08:00,69.6,63.2,29.93,NNW,338,3.8,6.0,80,0.00,,,0.00,pywws,2013-07-13 21:08:00,
2013-07-14 07:19:00,68.9,63.5,29.94,NE,45,3.1,6.9,83,0.01,,,0.01,pywws,2013-07-13 21:19:00,
2013-07-14 07:29:00,68.4,64.0,29.95,North,0,3.1,3.8,86,0.02,,,0.02,pywws,2013-07-13 21:29:00,
2013-07-14 07:39:00,68.4,64.3,29.95,North,0,1.6,2.2,87,0.02,,,0.02,pywws,2013-07-13 21:39:00,
2013-07-14 07:49:00,68.9,64.2,29.95,NE,45,0.7,2.2,85,0.02,,,0.02,pywws,2013-07-13 21:49:00,
2013-07-14 07:59:00,68.7,63.7,29.95,East,90,4.5,10.7,84,0.02,,,0.02,pywws,2013-07-13 21:59:00,
2013-07-14 08:08:00,69.3,64.2,29.95,NE,45,3.8,5.4,84,0.02,,,0.02,pywws,2013-07-13 22:08:00,
2013-07-14 08:19:00,70.0,64.2,29.95,NW,315,3.8,6.0,82,0.01,,,0.02,pywws,2013-07-13 22:19:00,
2013-07-14 08:29:00,71.4,64.9,29.95,NE,45,3.1,4.5,80,0.00,,,0.02,pywws,2013-07-13 22:29:00,
2013-07-14 08:39:00,72.3,64.3,29.96,NE,45,6.9,8.3,76,0.00,,,0.02,pywws,2013-07-13 22:39:00,
2013-07-14 08:49:00,70.5,64.0,29.97,North,0,2.2,3.8,80,0.00,,,0.02,pywws,2013-07-13 22:49:00,
2013-07-14 08:59:00,70.7,64.9,29.96,North,0,1.6,4.5,82,0.00,,,0.02,pywws,2013-07-13 22:59:00,
2013-07-14 09:08:00,71.2,65.5,29.96,NE,45,3.8,4.5,82,0.00,,,0.02,pywws,2013-07-13 23:08:00,
2013-07-14 09:19:00,72.0,65.1,29.97,NE,45,5.4,7.6,79,0.00,,,0.02,pywws,2013-07-13 23:19:00,
2013-07-14 09:29:00,71.6,64.0,29.98,North,0,7.6,11.4,77,0.01,,,0.04,pywws,2013-07-13 23:29:00,
2013-07-14 09:39:00,69.4,64.7,29.97,North,0,2.2,3.8,85,0.01,,,0.04,pywws,2013-07-13 23:39:00,
2013-07-14 09:49:00,70.3,65.3,29.97,SW,225,5.4,7.6,84,0.01,,,0.04,pywws,2013-07-13 23:49:00,
2013-07-14 09:59:00,70.3,64.6,29.98,NE,45,3.8,7.6,82,0.01,,,0.04,pywws,2013-07-13 23:59:00,
2013-07-14 10:08:00,73.0,66.1,29.96,South,180,2.2,5.4,79,0.01,,,0.04,pywws,2013-07-14 00:08:00,
2013-07-14 10:19:00,75.6,66.7,29.97,NW,315,7.6,9.8,74,0.01,,,0.04,pywws,2013-07-14 00:19:00,
2013-07-14 10:29:00,75.9,65.4,29.96,North,0,1.6,3.8,70,0.00,,,0.04,pywws,2013-07-14 00:29:00,
2013-07-14 10:39:00,76.6,65.7,29.96,East,90,4.5,6.9,69,0.00,,,0.04,pywws,2013-07-14 00:39:00,
2013-07-14 10:49:00,77.7,65.9,29.96,North,0,3.8,6.0,67,0.00,,,0.04,pywws,2013-07-14 00:49:00,
2013-07-14 10:59:00,79.3,66.1,29.95,North,0,6.0,9.8,64,0.00,,,0.04,pywws,2013-07-14 00:59:00,
2013-07-14 11:08:00,79.7,64.6,29.95,North,0,9.8,15.9,60,0.01,,,0.05,pywws,2013-07-14 01:08:00,
2013-07-14 11:19:00,80.2,65.1,29.95,NNE,22,6.9,9.8,60,0.01,,,0.05,pywws,2013-07-14 01:19:00,
2013-07-14 11:29:00,80.4,65.2,29.95,East,90,5.4,10.7,60,0.01,,,0.05,pywws,2013-07-14 01:29:00,
2013-07-14 11:39:00,80.2,64.6,29.94,NE,45,6.0,9.8,59,0.01,,,0.05,pywws,2013-07-14 01:39:00,
2013-07-14 11:49:00,81.0,64.8,29.94,NW,315,6.0,8.3,58,0.01,,,0.05,pywws,2013-07-14 01:49:00,
2013-07-14 11:59:00,81.5,65.8,29.94,North,0,7.6,11.4,59,0.01,,,0.05,pywws,2013-07-14 01:59:00,
2013-07-14 12:08:00,81.0,63.8,29.94,NE,45,5.4,9.2,56,0.00,,,0.05,pywws,2013-07-14 02:08:00,
2013-07-14 12:19:00,79.5,64.9,29.94,NE,45,6.9,9.2,61,0.00,,,0.05,pywws,2013-07-14 02:19:00,
2013-07-14 12:29:00,80.1,65.8,29.93,NE,45,5.4,8.3,62,0.00,,,0.05,pywws,2013-07-14 02:29:00,
2013-07-14 12:39:00,80.6,65.9,29.93,SW,225,5.4,8.3,61,0.00,,,0.05,pywws,2013-07-14 02:39:00,
2013-07-14 12:49:00,79.2,65.0,29.93,NE,45,6.0,11.4,62,0.00,,,0.05,pywws,2013-07-14 02:49:00,
2013-07-14 12:59:00,79.9,65.7,29.92,NE,45,4.5,7.6,62,0.00,,,0.05,pywws,2013-07-14 02:59:00,
2013-07-14 13:08:00,80.4,66.2,29.91,NE,45,6.0,8.3,62,0.00,,,0.05,pywws,2013-07-14 03:08:00,
2013-07-14 13:19:00,81.1,66.4,29.91,East,90,5.4,7.6,61,0.00,,,0.05,pywws,2013-07-14 03:19:00,
2013-07-14 13:29:00,77.7,65.0,29.92,NE,45,8.3,12.1,65,0.00,,,0.05,pywws,2013-07-14 03:29:00,
2013-07-14 13:39:00,76.1,65.2,29.91,NE,45,5.4,8.3,69,0.00,,,0.05,pywws,2013-07-14 03:39:00,
2013-07-14 13:49:00,78.3,65.9,29.91,North,0,3.8,4.5,66,0.00,,,0.05,pywws,2013-07-14 03:49:00,
2013-07-14 13:59:00,78.4,65.7,29.90,NNE,22,6.0,9.8,65,0.00,,,0.05,pywws,2013-07-14 03:59:00,
2013-07-14 14:01:00,78.1,65.3,29.90,NE,45,5.4,8.3,65,0.00,,,0.05,pywws,2013-07-14 04:01:00,
2013-07-14 14:02:00,77.7,65.0,29.90,NE,45,3.8,6.0,65,0.00,,,0.05,pywws,2013-07-14 04:02:00,
2013-07-14 14:08:00,77.9,65.2,29.90,North,0,4.5,9.2,65,0.00,,,0.05,pywws,2013-07-14 04:08:00,
2013-07-14 14:13:00,78.3,65.5,29.89,SE,135,7.6,9.8,65,0.00,,,0.05,pywws,2013-07-14 04:13:00,
2013-07-14 14:19:00,78.1,64.9,29.90,NE,45,5.4,8.3,64,0.00,,,0.05,pywws,2013-07-14 04:19:00,
2013-07-14 14:21:00,77.9,64.7,29.89,North,0,3.8,7.6,64,0.00,,,0.05,pywws,2013-07-14 04:21:00,
2013-07-14 14:29:00,76.6,64.4,29.90,NE,45,4.5,7.6,66,0.00,,,0.05,pywws,2013-07-14 04:29:00,
2013-07-14 14:39:00,75.6,65.5,29.90,NE,45,7.6,9.2,71,0.00,,,0.05,pywws,2013-07-14 04:39:00,
2013-07-14 14:49:00,72.7,64.3,29.91,NE,45,6.0,12.1,75,0.00,,,0.05,pywws,2013-07-14 04:49:00,
2013-07-14 14:59:00,72.1,64.1,29.91,South,180,1.6,4.5,76,0.00,,,0.05,pywws,2013-07-14 04:59:00,
2013-07-14 15:08:00,72.5,64.1,29.90,West,270,3.1,4.5,75,0.00,,,0.05,pywws,2013-07-14 05:08:00,
2013-07-14 15:19:00,74.1,64.9,29.90,NW,315,4.5,5.4,73,0.00,,,0.05,pywws,2013-07-14 05:19:00,
2013-07-14 15:29:00,74.7,64.6,29.90,West,270,3.1,5.4,71,0.00,,,0.05,pywws,2013-07-14 05:29:00,
2013-07-14 15:39:00,74.3,64.3,29.90,NE,45,5.4,7.6,71,0.00,,,0.05,pywws,2013-07-14 05:39:00,
2013-07-14 15:49:00,74.7,64.6,29.89,East,90,2.2,4.5,71,0.00,,,0.05,pywws,2013-07-14 05:49:00,
2013-07-14 15:59:00,75.2,64.3,29.89,NE,45,3.1,4.5,69,0.00,,,0.05,pywws,2013-07-14 05:59:00,
2013-07-14 16:08:00,76.1,63.5,29.89,NE,45,5.4,6.9,65,0.00,,,0.05,pywws,2013-07-14 06:08:00,
2013-07-14 16:19:00,75.6,63.4,29.89,NW,315,2.2,7.6,66,0.00,,,0.05,pywws,2013-07-14 06:19:00,
2013-07-14 16:29:00,75.7,63.1,29.90,NE,45,2.2,3.1,65,0.00,,,0.05,pywws,2013-07-14 06:29:00,
2013-07-14 16:39:00,75.4,62.8,29.90,NE,45,1.6,2.2,65,0.00,,,0.05,pywws,2013-07-14 06:39:00,
2013-07-14 16:49:00,74.3,62.6,29.91,North,0,0.7,3.1,67,0.00,,,0.05,pywws,2013-07-14 06:49:00,
2013-07-14 16:59:00,73.0,62.7,29.91,NE,45,6.9,9.8,70,0.00,,,0.05,pywws,2013-07-14 06:59:00,
2013-07-14 17:08:00,72.5,62.5,29.91,North,0,4.5,6.0,71,0.00,,,0.05,pywws,2013-07-14 07:08:00,
2013-07-14 17:19:00,72.3,62.4,29.92,East,90,1.6,3.1,71,0.00,,,0.05,pywws,2013-07-14 07:19:00,
2013-07-14 17:29:00,72.1,62.2,29.91,NE,45,2.2,4.5,71,0.00,,,0.05,pywws,2013-07-14 07:29:00,
2013-07-14 17:39:00,72.0,62.0,29.91,NE,45,2.2,3.1,71,0.00,,,0.05,pywws,2013-07-14 07:39:00,
2013-07-14 17:49:00,71.6,61.7,29.92,NE,45,1.6,3.1,71,0.00,,,0.05,pywws,2013-07-14 07:49:00,
2013-07-14 17:59:00,71.1,62.0,29.93,East,90,0.7,1.6,73,0.00,,,0.05,pywws,2013-07-14 07:59:00,
2013-07-14 18:08:00,70.7,61.6,29.93,NE,45,3.1,5.4,73,0.00,,,0.05,pywws,2013-07-14 08:08:00,
2013-07-14 18:19:00,70.9,62.2,29.93,NE,45,3.1,5.4,74,0.00,,,0.05,pywws,2013-07-14 08:19:00,
2013-07-14 18:29:00,70.7,62.0,29.93,NE,45,3.1,4.5,74,0.00,,,0.05,pywws,2013-07-14 08:29:00,
2013-07-14 18:39:00,70.7,62.0,29.93,NE,45,0.7,1.6,74,0.00,,,0.05,pywws,2013-07-14 08:39:00,
2013-07-14 18:49:00,70.7,62.0,29.93,NE,45,3.8,4.5,74,0.00,,,0.05,pywws,2013-07-14 08:49:00,
2013-07-14 18:59:00,70.3,62.0,29.94,East,90,1.6,2.2,75,0.00,,,0.05,pywws,2013-07-14 08:59:00,
2013-07-14 19:08:00,70.2,62.2,29.94,NE,45,1.6,3.8,76,0.00,,,0.05,pywws,2013-07-14 09:08:00,
2013-07-14 19:18:00,70.3,62.0,29.94,NE,45,1.6,3.8,75,0.00,,,0.05,pywws,2013-07-14 09:18:00,
2013-07-14 19:29:00,70.3,62.0,29.94,NE,45,4.5,6.0,75,0.00,,,0.05,pywws,2013-07-14 09:29:00,
2013-07-14 19:39:00,70.7,62.4,29.94,NE,45,3.1,4.5,75,0.00,,,0.05,pywws,2013-07-14 09:39:00,
2013-07-14 19:49:00,70.3,62.0,29.95,NE,45,2.2,3.1,75,0.00,,,0.05,pywws,2013-07-14 09:49:00,
2013-07-14 19:59:00,70.3,62.4,29.95,North,0,3.8,5.4,76,0.00,,,0.05,pywws,2013-07-14 09:59:00,
2013-07-14 20:08:00,70.7,62.8,29.96,North,0,2.2,3.8,76,0.00,,,0.05,pywws,2013-07-14 10:08:00,
2013-07-14 20:19:00,70.3,62.4,29.96,East,90,0.7,1.6,76,0.00,,,0.05,pywws,2013-07-14 10:19:00,
2013-07-14 20:29:00,70.3,62.4,29.96,NW,315,1.6,3.1,76,0.00,,,0.05,pywws,2013-07-14 10:29:00,
2013-07-14 20:39:00,69.8,62.6,29.96,NE,45,2.2,3.1,78,0.00,,,0.05,pywws,2013-07-14 10:39:00,
2013-07-14 20:49:00,69.3,63.2,29.96,NE,45,3.1,3.8,81,0.00,,,0.05,pywws,2013-07-14 10:49:00,
2013-07-14 20:59:00,68.9,63.5,29.96,East,90,0.0,1.6,83,0.00,,,0.05,pywws,2013-07-14 10:59:00,
2013-07-14 21:08:00,68.5,63.5,29.96,NE,45,2.2,3.1,84,0.00,,,0.05,pywws,2013-07-14 11:08:00,
2013-07-14 21:18:00,68.7,63.7,29.96,NE,45,0.7,2.2,84,0.00,,,0.05,pywws,2013-07-14 11:18:00,
2013-07-14 21:29:00,69.4,64.0,29.96,NE,45,2.2,3.8,83,0.00,,,0.05,pywws,2013-07-14 11:29:00,
2013-07-14 21:39:00,70.3,62.4,29.96,NE,45,4.5,6.9,76,0.00,,,0.05,pywws,2013-07-14 11:39:00,
2013-07-14 21:49:00,71.1,62.7,29.96,NE,45,3.8,6.0,75,0.00,,,0.05,pywws,2013-07-14 11:49:00,
2013-07-14 21:59:00,70.9,62.9,29.96,NNE,22,6.0,9.8,76,0.00,,,0.05,pywws,2013-07-14 11:59:00,
2013-07-14 22:08:00,70.9,62.9,29.96,ENE,68,6.0,8.3,76,0.00,,,0.05,pywws,2013-07-14 12:08:00,
2013-07-14 22:19:00,70.3,62.4,29.96,SW,225,2.2,3.8,76,0.00,,,0.05,pywws,2013-07-14 12:19:00,
2013-07-14 22:29:00,70.2,62.2,29.96,NE,45,1.6,2.2,76,0.00,,,0.05,pywws,2013-07-14 12:29:00,
2013-07-14 22:39:00,70.2,62.6,29.96,NE,45,1.6,3.8,77,0.00,,,0.05,pywws,2013-07-14 12:39:00,
2013-07-14 22:49:00,70.7,63.1,29.96,SE,135,2.2,3.1,77,0.00,,,0.05,pywws,2013-07-14 12:49:00,
2013-07-14 22:59:00,69.1,64.0,29.96,South,180,1.6,3.8,84,0.01,,,0.06,pywws,2013-07-14 12:59:00,
2013-07-14 23:08:00,68.2,64.2,29.96,SW,225,0.0,1.6,87,0.01,,,0.06,pywws,2013-07-14 13:08:00,
2013-07-14 23:18:00,67.5,64.1,29.95,North,0,0.0,1.6,89,0.01,,,0.06,pywws,2013-07-14 13:18:00,
2013-07-14 23:29:00,68.0,63.6,29.95,South,180,0.7,2.2,86,0.01,,,0.06,pywws,2013-07-14 13:29:00,
2013-07-14 23:39:00,68.4,63.3,29.95,NE,45,3.1,5.4,84,0.01,,,0.06,pywws,2013-07-14 13:39:00,
2013-07-14 23:49:00,68.7,63.7,29.94,NE,45,2.2,4.5,84,0.01,,,0.06,pywws,2013-07-14 13:49:00,
2013-07-14 23:59:00,68.7,63.7,29.94,NE,45,3.8,5.4,84,0.00,,,0.06,pywws,2013-07-14 13:59:00,